Hauptseite
METAR-TAF:

METAR-TAF

Flughäfen :

Warschau, Polen

Chopin-Flughafen Warschau

Breite: 52-10N, Länge: 020-58E, Höhe: 106 m

Beobachtung

Neuester Wetterbericht von vor 8 Minuten, um 22:00 UTC
Wind 10 kt aus Nord/Nordost
Temperatur -11°C
Luftfeuchtigkeit 66%
Luftdruck 1029 hPa
Sichtweite 10 km oder mehr
keine Wolken unter 1500 m und keine Kumulonimbus oder Gewitterwolken

METAR: EPWA 242200Z 02010KT CAVOK M11/M16 Q1029 R33/2///95 NOSIG

Zeit: 23:08 (22:08 UTC)

Prognose

Neuester Wetterbericht von vor 4 Stunden und 38 Minuten, um 17:30 UTC
Gültige Prognose vom 24 um 18 UTC bis 25 um 18 UTC
Wind 12 kt aus Nord/Nordost
Sichtweite 10 km oder mehr
Aufgelockert bewölkt in der Höhe von 2500 ft

TAF: EPWA 241730Z 2418/2518 03012KT 9999 SCT025

Wetterbeobachtungen und Prognosen von mehr als 4000 Flughäfen (METAR und TAF Bericht).

Die verfügbaren Stationen werden durch gelbe und rote Markierungen auf der Karte dargestellt.

Führen Sie die Maus auf sie, um den Namen der Station zu sehen.

Darauf klicken, um die Beobachtung von Wetterbeobachtungen und Prognosen zu sehen.

Um die Karte zu ändern : klicken Sie auf den grünen Tasten mit einem schwarzen Kreuz Zum Vergrößern, auf den grünen Button mit einem Gedankenstrich zu verkleinern, oder auf die grünen Pfeile für benachbarte Karten.


METAR-TAF: